sensor_id;sensor_type;location;lat;lon;timestamp;P1;durP1;ratioP1;P2;durP2;ratioP2
72611;SDS011;60655;52.182;4.474;2022-08-24T00:01:52;3.45;;;1.70;;
72611;SDS011;60655;52.182;4.474;2022-08-24T00:03:53;4.70;;;2.00;;
72611;SDS011;60655;52.182;4.474;2022-08-24T00:05:59;4.30;;;1.80;;
72611;SDS011;60655;52.182;4.474;2022-08-24T00:08:00;4.82;;;1.85;;
72611;SDS011;60655;52.182;4.474;2022-08-24T00:10:03;4.28;;;1.80;;
72611;SDS011;60655;52.182;4.474;2022-08-24T00:12:06;4.68;;;1.80;;
72611;SDS011;60655;52.182;4.474;2022-08-24T00:14:07;12.05;;;5.65;;
72611;SDS011;60655;52.182;4.474;2022-08-24T00:16:08;25.33;;;14.18;;
72611;SDS011;60655;52.182;4.474;2022-08-24T00:18:10;13.65;;;6.78;;
72611;SDS011;60655;52.182;4.474;2022-08-24T00:20:13;10.02;;;4.72;;
72611;SDS011;60655;52.182;4.474;2022-08-24T00:22:14;4.90;;;2.40;;
72611;SDS011;60655;52.182;4.474;2022-08-24T00:24:15;5.72;;;2.55;;
72611;SDS011;60655;52.182;4.474;2022-08-24T00:26:16;5.38;;;2.30;;
72611;SDS011;60655;52.182;4.474;2022-08-24T00:28:17;5.65;;;2.15;;
72611;SDS011;60655;52.182;4.474;2022-08-24T00:30:19;5.18;;;2.70;;
72611;SDS011;60655;52.182;4.474;2022-08-24T00:32:20;5.65;;;2.33;;
72611;SDS011;60655;52.182;4.474;2022-08-24T00:34:21;5.70;;;2.50;;
72611;SDS011;60655;52.182;4.474;2022-08-24T00:36:23;5.40;;;2.85;;
72611;SDS011;60655;52.182;4.474;2022-08-24T00:38:24;5.60;;;2.60;;
72611;SDS011;60655;52.182;4.474;2022-08-24T00:40:30;8.00;;;3.08;;
72611;SDS011;60655;52.182;4.474;2022-08-24T00:42:33;5.63;;;2.60;;
72611;SDS011;60655;52.182;4.474;2022-08-24T00:44:35;5.00;;;2.30;;
72611;SDS011;60655;52.182;4.474;2022-08-24T00:49:18;6.75;;;2.22;;
72611;SDS011;60655;52.182;4.474;2022-08-24T00:51:36;5.30;;;2.40;;
72611;SDS011;60655;52.182;4.474;2022-08-24T00:53:44;6.95;;;2.63;;
72611;SDS011;60655;52.182;4.474;2022-08-24T00:55:49;6.18;;;3.20;;
72611;SDS011;60655;52.182;4.474;2022-08-24T00:57:54;5.53;;;2.53;;
72611;SDS011;60655;52.182;4.474;2022-08-24T01:00:03;5.43;;;2.72;;
72611;SDS011;60655;52.182;4.474;2022-08-24T01:02:28;5.68;;;2.45;;
72611;SDS011;60655;52.182;4.474;2022-08-24T01:04:34;6.00;;;2.72;;
72611;SDS011;60655;52.182;4.474;2022-08-24T01:06:40;6.20;;;2.60;;
72611;SDS011;60655;52.182;4.474;2022-08-24T01:08:42;7.32;;;2.78;;
72611;SDS011;60655;52.182;4.474;2022-08-24T01:10:46;5.25;;;2.40;;
72611;SDS011;60655;52.182;4.474;2022-08-24T01:12:51;6.85;;;3.05;;
72611;SDS011;60655;52.182;4.474;2022-08-24T01:14:57;6.43;;;3.13;;
72611;SDS011;60655;52.182;4.474;2022-08-24T01:17:00;6.10;;;2.47;;
72611;SDS011;60655;52.182;4.474;2022-08-24T01:19:37;7.85;;;3.08;;
72611;SDS011;60655;52.182;4.474;2022-08-24T01:21:47;6.78;;;3.40;;
72611;SDS011;60655;52.182;4.474;2022-08-24T01:24:04;6.78;;;3.10;;
72611;SDS011;60655;52.182;4.474;2022-08-24T01:26:11;7.53;;;3.78;;
72611;SDS011;60655;52.182;4.474;2022-08-24T01:28:18;5.85;;;3.08;;
72611;SDS011;60655;52.182;4.474;2022-08-24T01:30:20;8.07;;;4.35;;
72611;SDS011;60655;52.182;4.474;2022-08-24T01:32:23;6.80;;;3.38;;
72611;SDS011;60655;52.182;4.474;2022-08-24T01:34:27;9.07;;;4.30;;
72611;SDS011;60655;52.182;4.474;2022-08-24T01:38:32;7.38;;;3.53;;
72611;SDS011;60655;52.182;4.474;2022-08-24T01:40:39;8.15;;;4.47;;
72611;SDS011;60655;52.182;4.474;2022-08-24T01:42:50;10.77;;;4.90;;
72611;SDS011;60655;52.182;4.474;2022-08-24T01:44:52;9.70;;;4.60;;
72611;SDS011;60655;52.182;4.474;2022-08-24T01:46:53;10.00;;;4.95;;
72611;SDS011;60655;52.182;4.474;2022-08-24T01:48:55;12.20;;;5.10;;
72611;SDS011;60655;52.182;4.474;2022-08-24T01:50:57;10.75;;;5.47;;
72611;SDS011;60655;52.182;4.474;2022-08-24T01:52:59;9.02;;;4.82;;
72611;SDS011;60655;52.182;4.474;2022-08-24T01:55:05;9.00;;;4.40;;
72611;SDS011;60655;52.182;4.474;2022-08-24T01:57:07;8.90;;;4.47;;
72611;SDS011;60655;52.182;4.474;2022-08-24T01:59:09;9.55;;;4.40;;
72611;SDS011;60655;52.182;4.474;2022-08-24T02:01:15;8.38;;;4.30;;
72611;SDS011;60655;52.182;4.474;2022-08-24T02:03:17;8.30;;;4.97;;
72611;SDS011;60655;52.182;4.474;2022-08-24T02:05:18;8.60;;;4.40;;
72611;SDS011;60655;52.182;4.474;2022-08-24T02:07:19;9.50;;;4.60;;
72611;SDS011;60655;52.182;4.474;2022-08-24T02:09:20;8.80;;;4.30;;
72611;SDS011;60655;52.182;4.474;2022-08-24T02:11:21;9.55;;;4.32;;
72611;SDS011;60655;52.182;4.474;2022-08-24T02:13:23;9.48;;;4.85;;
72611;SDS011;60655;52.182;4.474;2022-08-24T02:15:25;7.82;;;4.05;;
72611;SDS011;60655;52.182;4.474;2022-08-24T02:17:30;8.63;;;4.50;;
72611;SDS011;60655;52.182;4.474;2022-08-24T02:19:31;8.07;;;4.68;;
72611;SDS011;60655;52.182;4.474;2022-08-24T02:21:32;7.70;;;4.18;;
72611;SDS011;60655;52.182;4.474;2022-08-24T02:23:34;8.50;;;4.00;;
72611;SDS011;60655;52.182;4.474;2022-08-24T02:25:37;7.40;;;3.83;;
72611;SDS011;60655;52.182;4.474;2022-08-24T02:27:38;10.32;;;4.00;;
72611;SDS011;60655;52.182;4.474;2022-08-24T02:29:39;6.95;;;3.80;;
72611;SDS011;60655;52.182;4.474;2022-08-24T02:31:40;8.18;;;3.60;;
72611;SDS011;60655;52.182;4.474;2022-08-24T02:33:41;8.20;;;3.92;;
72611;SDS011;60655;52.182;4.474;2022-08-24T02:35:42;8.60;;;4.47;;
72611;SDS011;60655;52.182;4.474;2022-08-24T02:37:43;7.15;;;4.07;;
72611;SDS011;60655;52.182;4.474;2022-08-24T02:39:44;8.52;;;3.55;;
72611;SDS011;60655;52.182;4.474;2022-08-24T02:41:45;8.80;;;4.00;;
72611;SDS011;60655;52.182;4.474;2022-08-24T02:43:46;7.50;;;3.45;;
72611;SDS011;60655;52.182;4.474;2022-08-24T02:45:47;8.18;;;4.05;;
72611;SDS011;60655;52.182;4.474;2022-08-24T02:47:48;8.13;;;3.83;;
72611;SDS011;60655;52.182;4.474;2022-08-24T02:49:49;7.95;;;3.00;;
72611;SDS011;60655;52.182;4.474;2022-08-24T02:51:50;8.05;;;3.92;;
72611;SDS011;60655;52.182;4.474;2022-08-24T02:53:51;7.18;;;4.10;;
72611;SDS011;60655;52.182;4.474;2022-08-24T02:55:53;8.07;;;4.00;;
72611;SDS011;60655;52.182;4.474;2022-08-24T02:57:53;7.95;;;3.42;;
72611;SDS011;60655;52.182;4.474;2022-08-24T02:59:54;9.43;;;3.78;;
72611;SDS011;60655;52.182;4.474;2022-08-24T03:01:55;9.38;;;4.10;;
72611;SDS011;60655;52.182;4.474;2022-08-24T03:03:57;6.57;;;2.95;;
72611;SDS011;60655;52.182;4.474;2022-08-24T03:05:58;8.07;;;3.60;;
72611;SDS011;60655;52.182;4.474;2022-08-24T03:07:59;6.40;;;3.42;;
72611;SDS011;60655;52.182;4.474;2022-08-24T03:10:00;6.07;;;3.53;;
72611;SDS011;60655;52.182;4.474;2022-08-24T03:12:02;7.88;;;3.30;;
72611;SDS011;60655;52.182;4.474;2022-08-24T03:14:03;6.53;;;3.13;;
72611;SDS011;60655;52.182;4.474;2022-08-24T03:16:05;5.72;;;3.20;;
72611;SDS011;60655;52.182;4.474;2022-08-24T03:18:06;7.05;;;3.50;;
72611;SDS011;60655;52.182;4.474;2022-08-24T03:20:08;6.00;;;3.05;;
72611;SDS011;60655;52.182;4.474;2022-08-24T03:22:12;6.40;;;2.97;;
72611;SDS011;60655;52.182;4.474;2022-08-24T03:24:13;6.60;;;3.10;;
72611;SDS011;60655;52.182;4.474;2022-08-24T03:26:14;6.43;;;3.38;;
72611;SDS011;60655;52.182;4.474;2022-08-24T03:28:15;7.57;;;3.10;;
72611;SDS011;60655;52.182;4.474;2022-08-24T03:30:17;6.28;;;3.15;;
72611;SDS011;60655;52.182;4.474;2022-08-24T03:32:18;7.18;;;2.97;;
72611;SDS011;60655;52.182;4.474;2022-08-24T03:34:19;6.05;;;2.92;;
72611;SDS011;60655;52.182;4.474;2022-08-24T03:36:20;6.88;;;2.90;;
72611;SDS011;60655;52.182;4.474;2022-08-24T03:38:21;5.53;;;2.55;;
72611;SDS011;60655;52.182;4.474;2022-08-24T03:40:22;7.55;;;3.10;;
72611;SDS011;60655;52.182;4.474;2022-08-24T03:42:23;7.50;;;2.72;;
72611;SDS011;60655;52.182;4.474;2022-08-24T03:44:25;5.28;;;2.78;;
72611;SDS011;60655;52.182;4.474;2022-08-24T03:46:26;6.30;;;2.50;;
72611;SDS011;60655;52.182;4.474;2022-08-24T03:48:29;4.80;;;2.20;;
72611;SDS011;60655;52.182;4.474;2022-08-24T03:50:30;5.00;;;2.30;;
72611;SDS011;60655;52.182;4.474;2022-08-24T03:52:31;5.85;;;2.40;;
72611;SDS011;60655;52.182;4.474;2022-08-24T03:54:32;4.68;;;2.08;;
72611;SDS011;60655;52.182;4.474;2022-08-24T03:56:33;6.70;;;2.67;;
72611;SDS011;60655;52.182;4.474;2022-08-24T03:58:35;6.20;;;2.47;;
72611;SDS011;60655;52.182;4.474;2022-08-24T04:00:37;7.50;;;2.78;;
72611;SDS011;60655;52.182;4.474;2022-08-24T04:02:39;4.78;;;2.30;;
72611;SDS011;60655;52.182;4.474;2022-08-24T04:04:40;4.18;;;2.03;;
72611;SDS011;60655;52.182;4.474;2022-08-24T04:06:41;4.47;;;2.15;;
72611;SDS011;60655;52.182;4.474;2022-08-24T04:08:43;5.70;;;2.00;;
72611;SDS011;60655;52.182;4.474;2022-08-24T04:10:45;8.18;;;2.28;;
72611;SDS011;60655;52.182;4.474;2022-08-24T04:12:46;6.00;;;2.40;;
72611;SDS011;60655;52.182;4.474;2022-08-24T04:14:50;4.93;;;2.30;;
72611;SDS011;60655;52.182;4.474;2022-08-24T04:16:51;5.43;;;2.20;;
72611;SDS011;60655;52.182;4.474;2022-08-24T04:18:52;5.32;;;2.25;;
72611;SDS011;60655;52.182;4.474;2022-08-24T04:20:53;7.95;;;2.10;;
72611;SDS011;60655;52.182;4.474;2022-08-24T04:22:54;8.52;;;2.53;;
72611;SDS011;60655;52.182;4.474;2022-08-24T04:24:56;4.80;;;2.28;;
72611;SDS011;60655;52.182;4.474;2022-08-24T04:26:57;6.03;;;2.70;;
72611;SDS011;60655;52.182;4.474;2022-08-24T04:28:58;7.25;;;2.50;;
72611;SDS011;60655;52.182;4.474;2022-08-24T04:30:59;5.30;;;2.50;;
72611;SDS011;60655;52.182;4.474;2022-08-24T04:33:04;5.38;;;2.22;;
72611;SDS011;60655;52.182;4.474;2022-08-24T04:35:06;4.07;;;2.00;;
72611;SDS011;60655;52.182;4.474;2022-08-24T04:37:08;5.57;;;2.25;;
72611;SDS011;60655;52.182;4.474;2022-08-24T04:39:10;5.95;;;2.40;;
72611;SDS011;60655;52.182;4.474;2022-08-24T04:41:12;5.03;;;2.30;;
72611;SDS011;60655;52.182;4.474;2022-08-24T04:43:14;4.45;;;2.30;;
72611;SDS011;60655;52.182;4.474;2022-08-24T04:45:17;6.03;;;2.78;;
72611;SDS011;60655;52.182;4.474;2022-08-24T04:47:17;5.40;;;2.60;;
72611;SDS011;60655;52.182;4.474;2022-08-24T04:49:18;7.65;;;2.70;;
72611;SDS011;60655;52.182;4.474;2022-08-24T04:51:19;4.15;;;2.00;;
72611;SDS011;60655;52.182;4.474;2022-08-24T04:53:21;6.47;;;2.28;;
72611;SDS011;60655;52.182;4.474;2022-08-24T04:55:22;5.90;;;2.60;;
72611;SDS011;60655;52.182;4.474;2022-08-24T04:57:23;7.78;;;2.60;;
72611;SDS011;60655;52.182;4.474;2022-08-24T04:59:24;6.15;;;2.70;;
72611;SDS011;60655;52.182;4.474;2022-08-24T05:01:26;5.38;;;2.40;;
72611;SDS011;60655;52.182;4.474;2022-08-24T05:03:29;4.72;;;2.22;;
72611;SDS011;60655;52.182;4.474;2022-08-24T05:05:29;4.43;;;2.42;;
72611;SDS011;60655;52.182;4.474;2022-08-24T05:07:32;5.35;;;2.20;;
72611;SDS011;60655;52.182;4.474;2022-08-24T05:09:33;7.03;;;2.28;;
72611;SDS011;60655;52.182;4.474;2022-08-24T05:11:34;7.68;;;2.83;;
72611;SDS011;60655;52.182;4.474;2022-08-24T05:13:39;6.28;;;2.80;;
72611;SDS011;60655;52.182;4.474;2022-08-24T05:15:41;5.38;;;2.25;;
72611;SDS011;60655;52.182;4.474;2022-08-24T05:17:43;6.45;;;2.42;;
72611;SDS011;60655;52.182;4.474;2022-08-24T05:19:44;5.75;;;2.35;;
72611;SDS011;60655;52.182;4.474;2022-08-24T05:21:45;6.20;;;2.40;;
72611;SDS011;60655;52.182;4.474;2022-08-24T05:23:46;5.95;;;2.25;;
72611;SDS011;60655;52.182;4.474;2022-08-24T05:25:47;7.50;;;2.50;;
72611;SDS011;60655;52.182;4.474;2022-08-24T05:27:48;5.50;;;2.40;;
72611;SDS011;60655;52.182;4.474;2022-08-24T05:29:54;15.25;;;7.90;;
72611;SDS011;60655;52.182;4.474;2022-08-24T05:31:56;7.13;;;4.22;;
72611;SDS011;60655;52.182;4.474;2022-08-24T05:34:00;9.60;;;3.53;;
72611;SDS011;60655;52.182;4.474;2022-08-24T05:36:02;6.75;;;3.03;;
72611;SDS011;60655;52.182;4.474;2022-08-24T05:38:04;5.60;;;2.63;;
72611;SDS011;60655;52.182;4.474;2022-08-24T05:40:07;5.32;;;2.30;;
72611;SDS011;60655;52.182;4.474;2022-08-24T05:42:10;4.85;;;2.35;;
72611;SDS011;60655;52.182;4.474;2022-08-24T05:44:13;5.90;;;2.30;;
72611;SDS011;60655;52.182;4.474;2022-08-24T05:46:16;5.70;;;2.28;;
72611;SDS011;60655;52.182;4.474;2022-08-24T05:48:17;4.93;;;2.28;;
72611;SDS011;60655;52.182;4.474;2022-08-24T05:50:18;6.07;;;2.35;;
72611;SDS011;60655;52.182;4.474;2022-08-24T05:52:20;5.88;;;2.28;;
72611;SDS011;60655;52.182;4.474;2022-08-24T05:54:21;7.85;;;2.42;;
72611;SDS011;60655;52.182;4.474;2022-08-24T05:56:25;5.75;;;2.60;;
72611;SDS011;60655;52.182;4.474;2022-08-24T05:58:26;5.50;;;2.30;;
72611;SDS011;60655;52.182;4.474;2022-08-24T06:00:27;6.10;;;2.63;;
72611;SDS011;60655;52.182;4.474;2022-08-24T06:02:31;6.55;;;2.42;;
72611;SDS011;60655;52.182;4.474;2022-08-24T06:04:32;5.90;;;2.50;;
72611;SDS011;60655;52.182;4.474;2022-08-24T06:06:34;10.88;;;4.57;;
72611;SDS011;60655;52.182;4.474;2022-08-24T06:08:39;7.72;;;3.80;;
72611;SDS011;60655;52.182;4.474;2022-08-24T06:10:43;5.55;;;2.35;;
72611;SDS011;60655;52.182;4.474;2022-08-24T06:12:47;4.45;;;2.05;;
72611;SDS011;60655;52.182;4.474;2022-08-24T06:14:48;4.90;;;2.05;;
72611;SDS011;60655;52.182;4.474;2022-08-24T06:16:48;6.57;;;2.60;;
72611;SDS011;60655;52.182;4.474;2022-08-24T06:18:50;6.95;;;2.60;;
72611;SDS011;60655;52.182;4.474;2022-08-24T06:20:52;5.82;;;2.03;;
72611;SDS011;60655;52.182;4.474;2022-08-24T06:22:53;5.70;;;2.25;;
72611;SDS011;60655;52.182;4.474;2022-08-24T06:24:54;7.15;;;2.28;;
72611;SDS011;60655;52.182;4.474;2022-08-24T06:27:14;4.78;;;2.03;;
72611;SDS011;60655;52.182;4.474;2022-08-24T06:29:22;6.88;;;2.40;;
72611;SDS011;60655;52.182;4.474;2022-08-24T06:31:23;6.35;;;2.58;;
72611;SDS011;60655;52.182;4.474;2022-08-24T06:33:24;4.93;;;2.13;;
72611;SDS011;60655;52.182;4.474;2022-08-24T06:35:25;6.80;;;2.33;;
72611;SDS011;60655;52.182;4.474;2022-08-24T06:37:26;5.43;;;2.50;;
72611;SDS011;60655;52.182;4.474;2022-08-24T06:39:28;8.23;;;2.90;;
72611;SDS011;60655;52.182;4.474;2022-08-24T06:41:29;7.28;;;2.72;;
72611;SDS011;60655;52.182;4.474;2022-08-24T06:43:30;4.47;;;2.20;;
72611;SDS011;60655;52.182;4.474;2022-08-24T06:45:31;6.97;;;2.40;;
72611;SDS011;60655;52.182;4.474;2022-08-24T06:47:33;5.85;;;2.30;;
72611;SDS011;60655;52.182;4.474;2022-08-24T06:49:34;4.82;;;2.00;;
72611;SDS011;60655;52.182;4.474;2022-08-24T06:51:36;5.32;;;2.50;;
72611;SDS011;60655;52.182;4.474;2022-08-24T06:53:38;5.03;;;1.80;;
72611;SDS011;60655;52.182;4.474;2022-08-24T06:55:43;5.95;;;2.50;;
72611;SDS011;60655;52.182;4.474;2022-08-24T06:57:46;5.40;;;2.13;;
72611;SDS011;60655;52.182;4.474;2022-08-24T06:59:47;4.57;;;2.20;;
72611;SDS011;60655;52.182;4.474;2022-08-24T07:01:48;6.15;;;3.10;;
72611;SDS011;60655;52.182;4.474;2022-08-24T07:03:49;6.18;;;2.70;;
72611;SDS011;60655;52.182;4.474;2022-08-24T07:05:51;7.18;;;2.83;;
72611;SDS011;60655;52.182;4.474;2022-08-24T07:07:53;7.30;;;3.40;;
72611;SDS011;60655;52.182;4.474;2022-08-24T07:09:54;6.88;;;3.03;;
72611;SDS011;60655;52.182;4.474;2022-08-24T07:11:55;7.65;;;3.03;;
72611;SDS011;60655;52.182;4.474;2022-08-24T07:13:56;6.03;;;2.78;;
72611;SDS011;60655;52.182;4.474;2022-08-24T07:15:58;6.60;;;2.67;;
72611;SDS011;60655;52.182;4.474;2022-08-24T07:18:00;6.07;;;2.58;;
72611;SDS011;60655;52.182;4.474;2022-08-24T07:20:01;13.52;;;3.33;;
72611;SDS011;60655;52.182;4.474;2022-08-24T07:22:03;6.50;;;3.00;;
72611;SDS011;60655;52.182;4.474;2022-08-24T07:24:04;8.73;;;2.95;;
72611;SDS011;60655;52.182;4.474;2022-08-24T07:26:07;8.32;;;3.00;;
72611;SDS011;60655;52.182;4.474;2022-08-24T07:28:10;7.65;;;3.42;;
72611;SDS011;60655;52.182;4.474;2022-08-24T07:30:11;6.63;;;3.03;;
72611;SDS011;60655;52.182;4.474;2022-08-24T07:32:12;8.15;;;3.35;;
72611;SDS011;60655;52.182;4.474;2022-08-24T07:34:13;5.50;;;2.60;;
72611;SDS011;60655;52.182;4.474;2022-08-24T07:36:15;7.18;;;2.65;;
72611;SDS011;60655;52.182;4.474;2022-08-24T07:38:17;7.22;;;3.13;;
72611;SDS011;60655;52.182;4.474;2022-08-24T07:40:17;6.30;;;2.58;;
72611;SDS011;60655;52.182;4.474;2022-08-24T07:42:18;7.07;;;2.45;;
72611;SDS011;60655;52.182;4.474;2022-08-24T07:44:19;5.93;;;2.50;;
72611;SDS011;60655;52.182;4.474;2022-08-24T07:46:20;5.47;;;2.42;;
72611;SDS011;60655;52.182;4.474;2022-08-24T07:48:22;5.70;;;2.47;;
72611;SDS011;60655;52.182;4.474;2022-08-24T07:50:23;5.95;;;2.30;;
72611;SDS011;60655;52.182;4.474;2022-08-24T07:52:24;7.97;;;2.38;;
72611;SDS011;60655;52.182;4.474;2022-08-24T07:54:25;6.47;;;2.40;;
72611;SDS011;60655;52.182;4.474;2022-08-24T07:56:28;7.55;;;2.30;;
72611;SDS011;60655;52.182;4.474;2022-08-24T07:58:29;7.43;;;2.80;;
72611;SDS011;60655;52.182;4.474;2022-08-24T08:00:30;6.63;;;2.50;;
72611;SDS011;60655;52.182;4.474;2022-08-24T08:02:31;4.70;;;2.42;;
72611;SDS011;60655;52.182;4.474;2022-08-24T08:04:33;4.90;;;2.28;;
72611;SDS011;60655;52.182;4.474;2022-08-24T08:06:34;6.60;;;2.58;;
72611;SDS011;60655;52.182;4.474;2022-08-24T08:08:36;6.90;;;2.50;;
72611;SDS011;60655;52.182;4.474;2022-08-24T08:10:39;7.40;;;2.72;;
72611;SDS011;60655;52.182;4.474;2022-08-24T08:12:40;4.68;;;2.17;;
72611;SDS011;60655;52.182;4.474;2022-08-24T08:14:41;6.30;;;2.67;;
72611;SDS011;60655;52.182;4.474;2022-08-24T08:16:42;9.13;;;2.67;;
72611;SDS011;60655;52.182;4.474;2022-08-24T08:18:43;5.72;;;2.30;;
72611;SDS011;60655;52.182;4.474;2022-08-24T08:20:44;6.00;;;2.78;;
72611;SDS011;60655;52.182;4.474;2022-08-24T08:22:47;8.05;;;2.53;;
72611;SDS011;60655;52.182;4.474;2022-08-24T08:25:06;7.22;;;2.78;;
72611;SDS011;60655;52.182;4.474;2022-08-24T08:27:08;7.75;;;2.70;;
72611;SDS011;60655;52.182;4.474;2022-08-24T08:29:14;5.95;;;2.30;;
72611;SDS011;60655;52.182;4.474;2022-08-24T08:31:16;6.53;;;2.20;;
72611;SDS011;60655;52.182;4.474;2022-08-24T08:33:17;6.00;;;2.35;;
72611;SDS011;60655;52.182;4.474;2022-08-24T08:35:18;4.90;;;2.03;;
72611;SDS011;60655;52.182;4.474;2022-08-24T08:37:19;8.05;;;2.53;;
72611;SDS011;60655;52.182;4.474;2022-08-24T08:39:20;6.80;;;2.00;;
72611;SDS011;60655;52.182;4.474;2022-08-24T08:41:46;5.82;;;2.00;;
72611;SDS011;60655;52.182;4.474;2022-08-24T08:43:56;5.45;;;1.70;;
72611;SDS011;60655;52.182;4.474;2022-08-24T08:57:47;6.53;;;2.42;;
72611;SDS011;60655;52.182;4.474;2022-08-24T08:59:59;7.30;;;1.50;;
72611;SDS011;60655;52.182;4.474;2022-08-24T09:02:18;5.95;;;1.70;;
72611;SDS011;60655;52.182;4.474;2022-08-24T09:09:48;6.10;;;1.77;;
72611;SDS011;60655;52.182;4.474;2022-08-24T09:21:14;7.93;;;1.65;;
72611;SDS011;60655;52.182;4.474;2022-08-24T09:37:04;4.53;;;1.20;;
72611;SDS011;60655;52.182;4.474;2022-08-24T09:39:31;6.47;;;1.60;;
72611;SDS011;60655;52.182;4.474;2022-08-24T10:03:17;3.80;;;1.20;;
72611;SDS011;60655;52.182;4.474;2022-08-24T10:05:30;4.35;;;1.05;;
72611;SDS011;60655;52.182;4.474;2022-08-24T10:07:40;2.85;;;1.00;;
72611;SDS011;60655;52.182;4.474;2022-08-24T10:15:20;4.10;;;1.00;;
72611;SDS011;60655;52.182;4.474;2022-08-24T10:26:22;2.97;;;1.10;;
72611;SDS011;60655;52.182;4.474;2022-08-24T10:31:07;1.77;;;0.95;;
72611;SDS011;60655;52.182;4.474;2022-08-24T10:35:24;3.88;;;1.52;;
72611;SDS011;60655;52.182;4.474;2022-08-24T10:47:36;5.50;;;1.60;;
72611;SDS011;60655;52.182;4.474;2022-08-24T10:50:15;3.90;;;1.77;;
72611;SDS011;60655;52.182;4.474;2022-08-24T10:54:39;7.03;;;1.70;;
72611;SDS011;60655;52.182;4.474;2022-08-24T10:59:16;5.25;;;1.65;;
72611;SDS011;60655;52.182;4.474;2022-08-24T11:03:26;7.97;;;2.35;;
72611;SDS011;60655;52.182;4.474;2022-08-24T11:05:28;5.63;;;2.05;;
72611;SDS011;60655;52.182;4.474;2022-08-24T11:07:30;5.35;;;2.25;;
72611;SDS011;60655;52.182;4.474;2022-08-24T11:12:15;4.88;;;1.80;;
72611;SDS011;60655;52.182;4.474;2022-08-24T11:14:36;3.78;;;1.48;;
72611;SDS011;60655;52.182;4.474;2022-08-24T11:16:39;4.40;;;1.33;;
72611;SDS011;60655;52.182;4.474;2022-08-24T11:20:54;3.13;;;1.17;;
72611;SDS011;60655;52.182;4.474;2022-08-24T11:22:57;3.65;;;1.27;;
72611;SDS011;60655;52.182;4.474;2022-08-24T11:25:06;3.95;;;1.20;;
72611;SDS011;60655;52.182;4.474;2022-08-24T11:29:16;3.42;;;1.75;;
72611;SDS011;60655;52.182;4.474;2022-08-24T11:31:19;4.10;;;1.13;;
72611;SDS011;60655;52.182;4.474;2022-08-24T11:33:43;2.17;;;1.20;;
72611;SDS011;60655;52.182;4.474;2022-08-24T11:35:46;4.97;;;1.20;;
72611;SDS011;60655;52.182;4.474;2022-08-24T11:37:48;5.25;;;1.10;;
72611;SDS011;60655;52.182;4.474;2022-08-24T11:39:52;3.20;;;1.10;;
72611;SDS011;60655;52.182;4.474;2022-08-24T11:44:00;2.67;;;0.80;;
72611;SDS011;60655;52.182;4.474;2022-08-24T11:48:13;2.97;;;0.90;;
72611;SDS011;60655;52.182;4.474;2022-08-24T11:50:28;2.35;;;1.00;;
72611;SDS011;60655;52.182;4.474;2022-08-24T11:54:57;3.90;;;1.27;;
72611;SDS011;60655;52.182;4.474;2022-08-24T11:57:19;2.90;;;0.77;;
72611;SDS011;60655;52.182;4.474;2022-08-24T12:02:06;3.13;;;0.98;;
72611;SDS011;60655;52.182;4.474;2022-08-24T12:06:36;8.70;;;1.30;;
72611;SDS011;60655;52.182;4.474;2022-08-24T12:09:03;3.15;;;0.85;;
72611;SDS011;60655;52.182;4.474;2022-08-24T12:11:49;3.67;;;1.02;;
72611;SDS011;60655;52.182;4.474;2022-08-24T12:13:58;3.92;;;0.90;;
72611;SDS011;60655;52.182;4.474;2022-08-24T12:16:08;4.30;;;1.17;;
72611;SDS011;60655;52.182;4.474;2022-08-24T12:18:27;2.50;;;0.90;;
72611;SDS011;60655;52.182;4.474;2022-08-24T12:20:42;3.67;;;1.15;;
72611;SDS011;60655;52.182;4.474;2022-08-24T12:22:47;6.18;;;1.10;;
72611;SDS011;60655;52.182;4.474;2022-08-24T12:24:57;1.95;;;1.00;;
72611;SDS011;60655;52.182;4.474;2022-08-24T12:27:27;2.55;;;1.13;;
72611;SDS011;60655;52.182;4.474;2022-08-24T12:29:36;2.58;;;1.33;;
72611;SDS011;60655;52.182;4.474;2022-08-24T12:31:56;6.20;;;1.35;;
72611;SDS011;60655;52.182;4.474;2022-08-24T12:34:03;3.65;;;1.40;;
72611;SDS011;60655;52.182;4.474;2022-08-24T12:39:08;3.33;;;1.33;;
72611;SDS011;60655;52.182;4.474;2022-08-24T12:41:26;4.93;;;1.20;;
72611;SDS011;60655;52.182;4.474;2022-08-24T12:43:41;2.38;;;1.30;;
72611;SDS011;60655;52.182;4.474;2022-08-24T12:45:57;4.35;;;1.30;;
72611;SDS011;60655;52.182;4.474;2022-08-24T12:48:05;2.95;;;1.02;;
72611;SDS011;60655;52.182;4.474;2022-08-24T13:01:03;4.35;;;1.23;;
72611;SDS011;60655;52.182;4.474;2022-08-24T13:03:07;6.70;;;1.40;;
72611;SDS011;60655;52.182;4.474;2022-08-24T13:05:23;3.88;;;1.23;;
72611;SDS011;60655;52.182;4.474;2022-08-24T13:07:37;4.97;;;1.10;;
72611;SDS011;60655;52.182;4.474;2022-08-24T13:09:44;4.65;;;1.10;;
72611;SDS011;60655;52.182;4.474;2022-08-24T13:11:46;3.65;;;1.10;;
72611;SDS011;60655;52.182;4.474;2022-08-24T13:15:55;3.15;;;1.02;;
72611;SDS011;60655;52.182;4.474;2022-08-24T13:26:30;2.20;;;1.00;;
72611;SDS011;60655;52.182;4.474;2022-08-24T13:28:37;2.60;;;1.20;;
72611;SDS011;60655;52.182;4.474;2022-08-24T13:32:58;2.78;;;1.13;;
72611;SDS011;60655;52.182;4.474;2022-08-24T13:37:41;2.95;;;1.17;;
72611;SDS011;60655;52.182;4.474;2022-08-24T13:54:41;2.75;;;1.10;;
72611;SDS011;60655;52.182;4.474;2022-08-24T13:59:20;4.35;;;1.10;;
72611;SDS011;60655;52.182;4.474;2022-08-24T14:06:39;4.18;;;1.60;;
72611;SDS011;60655;52.182;4.474;2022-08-24T14:09:00;4.20;;;1.40;;
72611;SDS011;60655;52.182;4.474;2022-08-24T14:11:52;3.28;;;1.23;;
72611;SDS011;60655;52.182;4.474;2022-08-24T14:16:50;4.78;;;1.40;;
72611;SDS011;60655;52.182;4.474;2022-08-24T14:19:31;3.35;;;1.30;;
72611;SDS011;60655;52.182;4.474;2022-08-24T14:21:43;6.18;;;1.38;;
72611;SDS011;60655;52.182;4.474;2022-08-24T14:23:55;4.45;;;1.60;;
72611;SDS011;60655;52.182;4.474;2022-08-24T14:28:36;4.20;;;1.63;;
72611;SDS011;60655;52.182;4.474;2022-08-24T14:30:43;5.38;;;2.00;;
72611;SDS011;60655;52.182;4.474;2022-08-24T14:35:12;6.20;;;1.80;;
72611;SDS011;60655;52.182;4.474;2022-08-24T14:39:29;4.35;;;1.85;;
72611;SDS011;60655;52.182;4.474;2022-08-24T14:41:47;4.72;;;1.85;;
72611;SDS011;60655;52.182;4.474;2022-08-24T14:46:18;3.88;;;1.48;;
72611;SDS011;60655;52.182;4.474;2022-08-24T14:48:40;4.75;;;1.80;;
72611;SDS011;60655;52.182;4.474;2022-08-24T14:58:03;6.28;;;2.13;;
72611;SDS011;60655;52.182;4.474;2022-08-24T15:00:23;5.10;;;2.10;;
72611;SDS011;60655;52.182;4.474;2022-08-24T15:07:25;4.43;;;1.70;;
72611;SDS011;60655;52.182;4.474;2022-08-24T15:09:32;4.97;;;1.80;;
72611;SDS011;60655;52.182;4.474;2022-08-24T15:11:37;4.95;;;1.83;;
72611;SDS011;60655;52.182;4.474;2022-08-24T15:13:48;3.95;;;1.90;;
72611;SDS011;60655;52.182;4.474;2022-08-24T15:15:56;5.65;;;2.20;;
72611;SDS011;60655;52.182;4.474;2022-08-24T15:18:04;6.93;;;1.92;;
72611;SDS011;60655;52.182;4.474;2022-08-24T15:27:32;6.22;;;2.47;;
72611;SDS011;60655;52.182;4.474;2022-08-24T15:29:50;6.47;;;2.55;;
72611;SDS011;60655;52.182;4.474;2022-08-24T15:31:56;6.22;;;2.40;;
72611;SDS011;60655;52.182;4.474;2022-08-24T15:34:07;6.78;;;2.00;;
72611;SDS011;60655;52.182;4.474;2022-08-24T15:36:11;5.47;;;2.70;;
72611;SDS011;60655;52.182;4.474;2022-08-24T15:38:16;5.70;;;2.75;;
72611;SDS011;60655;52.182;4.474;2022-08-24T15:42:34;5.55;;;2.63;;
72611;SDS011;60655;52.182;4.474;2022-08-24T15:44:36;5.65;;;3.03;;
72611;SDS011;60655;52.182;4.474;2022-08-24T15:46:44;6.35;;;2.95;;
72611;SDS011;60655;52.182;4.474;2022-08-24T15:48:48;7.32;;;2.72;;
72611;SDS011;60655;52.182;4.474;2022-08-24T15:50:51;6.85;;;2.50;;
72611;SDS011;60655;52.182;4.474;2022-08-24T15:52:54;6.57;;;2.80;;
72611;SDS011;60655;52.182;4.474;2022-08-24T15:55:00;7.25;;;2.85;;
72611;SDS011;60655;52.182;4.474;2022-08-24T15:57:07;7.65;;;3.50;;
72611;SDS011;60655;52.182;4.474;2022-08-24T16:01:28;10.02;;;3.10;;
72611;SDS011;60655;52.182;4.474;2022-08-24T16:03:52;8.25;;;3.03;;